createdAt,value
2023-03-30T00:01:23.959Z,96563.00
2023-03-30T00:06:25.660Z,96565.00
2023-03-30T00:11:27.023Z,96558.00
2023-03-30T00:16:27.899Z,96535.00
2023-03-30T00:21:29.110Z,96535.00
2023-03-30T00:26:30.182Z,96535.00
2023-03-30T00:31:30.928Z,96530.00
2023-03-30T00:36:36.302Z,96537.00
2023-03-30T00:41:37.218Z,96547.00
2023-03-30T00:46:40.277Z,96542.00
2023-03-30T00:51:42.269Z,96543.00
2023-03-30T00:56:43.497Z,96547.00
2023-03-30T01:01:49.540Z,96555.00
2023-03-30T01:06:51.438Z,96555.00
2023-03-30T01:11:52.468Z,96561.00
2023-03-30T01:17:15.830Z,96559.00
2023-03-30T01:24:04.116Z,96555.00
2023-03-30T01:29:29.199Z,96560.00
2023-03-30T01:38:38.086Z,96564.00
2023-03-30T01:43:54.288Z,96556.00
2023-03-30T01:49:27.390Z,96558.00
2023-03-30T01:54:36.128Z,96559.00
2023-03-30T01:59:45.969Z,96574.00
2023-03-30T02:04:52.908Z,96564.00
2023-03-30T02:09:58.123Z,96543.00
2023-03-30T02:15:03.998Z,96545.00
2023-03-30T02:20:08.677Z,96534.00
2023-03-30T02:25:11.831Z,96541.00
2023-03-30T02:30:13.999Z,96528.00
2023-03-30T02:35:47.162Z,96537.00
2023-03-30T02:41:05.024Z,96561.00
2023-03-30T02:46:19.177Z,96580.00
2023-03-30T02:52:16.841Z,96577.00
2023-03-30T02:57:46.182Z,96577.00
2023-03-30T03:03:14.172Z,96555.00
2023-03-30T03:08:18.605Z,96558.00
2023-03-30T03:13:21.268Z,96533.00
2023-03-30T03:18:23.587Z,96495.00
2023-03-30T03:23:24.994Z,96460.00
2023-03-30T03:28:28.969Z,96382.00
2023-03-30T03:33:35.525Z,96416.00
2023-03-30T03:38:43.953Z,96422.00
2023-03-30T03:43:45.019Z,96428.00
2023-03-30T03:48:46.371Z,96429.00
2023-03-30T03:53:48.857Z,96426.00
2023-03-30T03:58:50.418Z,96439.00
2023-03-30T04:03:51.279Z,96439.00
2023-03-30T04:08:52.568Z,96428.00
2023-03-30T04:16:30.798Z,96411.00
2023-03-30T04:22:32.931Z,96413.00
2023-03-30T04:27:55.181Z,96422.00
2023-03-30T04:33:52.604Z,96418.00
2023-03-30T04:39:12.910Z,96413.00
2023-03-30T04:44:25.359Z,96417.00
2023-03-30T04:49:50.594Z,96406.00
2023-03-30T04:55:48.932Z,96414.00
2023-03-30T05:01:08.086Z,96410.00
2023-03-30T05:06:37.242Z,96415.00
2023-03-30T05:11:56.454Z,96400.00
2023-03-30T05:18:28.088Z,96404.00
2023-03-30T05:23:43.273Z,96419.00
2023-03-30T05:29:18.361Z,96409.00
2023-03-30T05:34:37.622Z,96428.00
2023-03-30T05:39:54.496Z,96399.00
2023-03-30T05:45:07.896Z,96396.00
2023-03-30T05:50:27.200Z,96424.00
2023-03-30T05:55:32.543Z,96411.00
2023-03-30T06:00:53.378Z,96439.00
2023-03-30T06:06:07.142Z,96403.00
2023-03-30T06:11:09.236Z,96431.00
2023-03-30T06:16:18.850Z,96442.00
2023-03-30T06:21:21.100Z,96429.00
2023-03-30T06:27:08.487Z,96429.00
2023-03-30T06:32:10.434Z,96388.00
2023-03-30T06:39:06.509Z,96380.00
2023-03-30T06:44:14.016Z,96388.00
2023-03-30T06:49:15.052Z,96382.00
2023-03-30T06:54:33.870Z,96392.00
2023-03-30T06:59:38.690Z,96402.00
2023-03-30T07:05:14.887Z,96399.00
2023-03-30T07:11:04.053Z,96376.00
2023-03-30T07:16:07.278Z,96380.00
2023-03-30T07:21:08.634Z,96361.00
2023-03-30T07:26:13.433Z,96370.00
2023-03-30T07:31:28.429Z,96340.00
2023-03-30T07:36:29.805Z,96345.00
2023-03-30T07:41:30.848Z,96347.00
2023-03-30T07:46:32.861Z,96393.00
2023-03-30T07:51:34.859Z,96400.00
2023-03-30T07:56:42.138Z,96399.00
2023-03-30T08:01:44.142Z,96391.00
2023-03-30T08:07:06.954Z,96389.00
2023-03-30T08:12:08.626Z,96395.00
2023-03-30T08:17:09.421Z,96408.00
2023-03-30T08:22:10.313Z,96417.00
2023-03-30T08:27:11.283Z,96402.00
2023-03-30T08:32:12.128Z,96392.00
2023-03-30T08:37:13.100Z,96403.00
2023-03-30T08:44:56.497Z,96409.00
2023-03-30T08:50:18.401Z,96428.00
2023-03-30T08:55:45.404Z,96431.00
2023-03-30T09:00:58.425Z,96421.00
2023-03-30T09:06:18.674Z,96408.00
2023-03-30T09:11:31.162Z,96429.00
2023-03-30T09:16:45.734Z,96431.00
2023-03-30T09:21:49.198Z,96443.00
2023-03-30T09:26:59.246Z,96444.00
2023-03-30T09:32:12.782Z,96442.00
2023-03-30T09:37:18.005Z,96454.00
2023-03-30T09:43:04.078Z,96449.00
2023-03-30T09:48:07.841Z,96454.00
2023-03-30T09:53:28.442Z,96434.00
2023-03-30T09:58:33.596Z,96453.00
2023-03-30T10:03:35.093Z,96440.00
2023-03-30T10:08:54.662Z,96449.00
2023-03-30T10:13:57.035Z,96452.00
2023-03-30T10:19:04.763Z,96455.00
2023-03-30T10:24:22.013Z,96464.00
2023-03-30T10:29:26.562Z,96462.00
2023-03-30T10:35:17.213Z,96474.00
2023-03-30T10:40:33.339Z,96470.00
2023-03-30T10:45:40.046Z,96469.00
2023-03-30T10:51:09.875Z,96478.00
2023-03-30T10:58:03.317Z,96479.00
2023-03-30T11:03:26.678Z,96468.00
2023-03-30T11:08:37.012Z,96460.00
2023-03-30T11:13:42.276Z,96467.00
2023-03-30T11:18:56.275Z,96468.00
2023-03-30T11:24:10.451Z,96464.00
2023-03-30T11:29:30.592Z,96472.00
2023-03-30T11:34:45.699Z,96462.00
2023-03-30T11:39:58.272Z,96453.00
2023-03-30T11:45:00.951Z,96468.00
2023-03-30T11:51:45.128Z,96463.00
2023-03-30T11:56:49.812Z,96458.00
2023-03-30T12:03:35.268Z,96465.00
2023-03-30T12:09:34.275Z,96449.00
2023-03-30T12:17:33.484Z,96449.00
2023-03-30T12:22:44.565Z,96459.00
2023-03-30T12:28:15.332Z,96459.00
2023-03-30T12:33:27.417Z,96453.00
2023-03-30T12:38:42.723Z,96454.00
2023-03-30T12:44:04.037Z,96449.00
2023-03-30T12:53:49.793Z,96458.00
2023-03-30T13:01:59.893Z,96470.00
2023-03-30T13:07:04.514Z,96431.00
2023-03-30T13:12:39.106Z,96463.00
2023-03-30T13:24:07.674Z,96470.00
2023-03-30T13:29:10.746Z,96464.00
2023-03-30T13:34:23.704Z,96471.00
2023-03-30T13:41:33.115Z,96465.00
2023-03-30T13:47:07.548Z,96475.00
2023-03-30T13:52:13.852Z,96481.00
2023-03-30T13:57:27.097Z,96476.00
2023-03-30T14:02:30.062Z,96509.00
2023-03-30T14:07:40.357Z,96510.00
2023-03-30T14:12:42.750Z,96529.00
2023-03-30T14:17:49.225Z,96507.00
2023-03-30T14:22:51.715Z,96504.00
2023-03-30T14:27:52.763Z,96519.00
2023-03-30T14:33:11.747Z,96514.00
2023-03-30T14:38:33.830Z,96512.00
2023-03-30T14:43:39.526Z,96504.00
2023-03-30T14:48:43.320Z,96519.00
2023-03-30T14:53:44.540Z,96504.00
2023-03-30T14:58:47.058Z,96506.00
2023-03-30T15:03:48.769Z,96523.00
2023-03-30T15:08:49.882Z,96569.00
2023-03-30T15:13:53.255Z,96525.00
2023-03-30T15:19:43.066Z,96524.00
2023-03-30T15:24:44.375Z,96514.00
2023-03-30T15:29:46.378Z,96533.00
2023-03-30T15:35:39.022Z,96547.00
2023-03-30T15:40:46.636Z,96581.00
2023-03-30T15:46:01.326Z,96547.00
2023-03-30T15:51:09.520Z,96539.00
2023-03-30T15:56:38.823Z,96536.00
2023-03-30T16:02:01.153Z,96516.00
2023-03-30T16:07:13.426Z,96518.00
2023-03-30T16:12:21.172Z,96514.00
2023-03-30T16:17:22.391Z,96514.00
2023-03-30T16:22:23.196Z,96517.00
2023-03-30T16:27:24.031Z,96510.00
2023-03-30T16:32:29.875Z,96514.00
2023-03-30T16:37:36.165Z,96513.00
2023-03-30T16:42:36.962Z,96524.00
2023-03-30T16:47:37.873Z,96513.00
2023-03-30T16:52:38.704Z,96511.00
2023-03-30T16:57:39.835Z,96521.00
2023-03-30T17:02:40.693Z,96508.00
2023-03-30T17:07:42.051Z,96516.00
2023-03-30T17:12:42.873Z,96508.00
2023-03-30T17:17:43.779Z,96510.00
2023-03-30T17:22:44.593Z,96499.00
2023-03-30T17:27:50.115Z,96507.00
2023-03-30T17:32:51.737Z,96514.00
2023-03-30T17:37:54.832Z,96500.00
2023-03-30T17:42:56.031Z,96523.00
2023-03-30T17:47:57.783Z,96530.00
2023-03-30T17:52:59.873Z,96541.00
2023-03-30T17:58:01.424Z,96545.00
2023-03-30T18:03:02.250Z,96544.00
2023-03-30T18:08:04.176Z,96530.00
2023-03-30T18:13:05.849Z,96552.00
2023-03-30T18:18:06.656Z,96547.00
2023-03-30T18:23:08.394Z,96550.00
2023-03-30T18:28:16.486Z,96553.00
2023-03-30T18:33:17.467Z,96553.00
2023-03-30T18:38:20.850Z,96565.00
2023-03-30T18:43:21.918Z,96555.00
2023-03-30T18:48:22.735Z,96570.00
2023-03-30T18:53:27.040Z,96570.00
2023-03-30T18:58:33.027Z,96576.00
2023-03-30T19:03:34.047Z,96584.00
2023-03-30T19:08:34.924Z,96565.00
2023-03-30T19:13:35.930Z,96562.00
2023-03-30T19:18:36.718Z,96567.00
2023-03-30T19:23:37.498Z,96568.00
2023-03-30T19:28:39.811Z,96574.00
2023-03-30T19:33:41.086Z,96565.00
2023-03-30T19:38:43.169Z,96562.00
2023-03-30T19:43:44.747Z,96561.00
2023-03-30T19:48:45.567Z,96542.00
2023-03-30T19:53:46.528Z,96551.00
2023-03-30T19:58:47.622Z,96540.00
2023-03-30T20:03:48.479Z,96543.00
2023-03-30T20:08:49.429Z,96542.00
2023-03-30T20:13:50.901Z,96561.00
2023-03-30T20:18:52.911Z,96550.00
2023-03-30T20:23:55.112Z,96553.00
2023-03-30T20:28:56.127Z,96555.00
2023-03-30T20:33:57.827Z,96544.00
2023-03-30T20:38:58.703Z,96555.00
2023-03-30T20:44:02.511Z,96553.00
2023-03-30T20:49:05.088Z,96535.00
2023-03-30T20:54:06.174Z,96543.00
2023-03-30T20:59:07.384Z,96543.00
2023-03-30T21:04:08.281Z,96543.00
2023-03-30T21:09:09.633Z,96517.00
2023-03-30T21:14:12.503Z,96533.00
2023-03-30T21:19:13.310Z,96529.00
2023-03-30T21:24:16.029Z,96516.00
2023-03-30T21:29:17.119Z,96501.00
2023-03-30T21:34:17.969Z,96487.00
2023-03-30T21:39:18.738Z,96463.00
2023-03-30T21:44:19.566Z,96476.00
2023-03-30T21:49:20.338Z,96466.00
2023-03-30T21:54:21.118Z,96455.00
2023-03-30T21:59:21.968Z,96450.00
2023-03-30T22:04:22.970Z,96446.00
2023-03-30T22:09:23.778Z,96449.00
2023-03-30T22:14:24.763Z,96442.00
2023-03-30T22:19:25.658Z,96438.00
2023-03-30T22:24:26.459Z,96431.00
2023-03-30T22:29:27.318Z,96426.00
2023-03-30T22:34:28.230Z,96421.00
2023-03-30T22:39:29.173Z,96415.00
2023-03-30T22:44:30.203Z,96394.00
2023-03-30T22:49:30.977Z,96395.00
2023-03-30T22:54:32.046Z,96392.00
2023-03-30T22:59:32.970Z,96388.00
2023-03-30T23:04:33.838Z,96403.00
2023-03-30T23:09:34.664Z,96379.00
2023-03-30T23:14:37.117Z,96382.00
2023-03-30T23:19:37.963Z,96379.00
2023-03-30T23:24:38.732Z,96364.00
2023-03-30T23:29:40.141Z,96352.00
2023-03-30T23:34:42.190Z,96350.00
2023-03-30T23:39:42.960Z,96365.00
2023-03-30T23:44:44.336Z,96357.00
2023-03-30T23:49:45.350Z,96342.00
2023-03-30T23:54:51.336Z,96321.00
2023-03-30T23:59:52.293Z,96322.00
